KAGS/AGS METAR and TAF weather

Enter ICAO airport designator
Station Type Date Time Source
KAGS METAR 2019/08/21 21:53 UTC NOAA

KAGS 212153Z 22006KT 10SM CLR 34/22 A3001 RMK AO2 SLP159 T03440217


Station Type Date Time Source
KAGS Decoded METAR 2019/08/21 21:53 UTC NOAA

Station name not available
Aug 21, 2019 - 05:53 PM EDT / 2019.08.21 2153 UTC
Wind: from the SW (220 degrees) at 7 MPH (6 KT):0
Visibility: 10 mile(s):0
Sky conditions: clear
Temperature: 93.9 F (34.4 C)
Heat index: 100.8 F (38.2 C):1
Dew Point: 71.1 F (21.7 C)
Relative Humidity: 47%
Pressure (altimeter): 30.01 in. Hg (1016 hPa)
ob: KAGS 212153Z 22006KT 10SM CLR 34/22 A3001 RMK AO2 SLP159 T03440217
cycle: 22

Station Type Date Time Source
KAGS TAF 2019/08/21 21:58 UTC NOAA

TAF
AMD KAGS 212056Z 2121/2218 23010KT P6SM VCTS BKN050CB
FM220000 VRB03KT P6SM SCT250
FM221400 25006KT P6SM SKC

Example: see airport list